sensor_id;sensor_type;location;lat;lon;timestamp;P1;durP1;ratioP1;P2;durP2;ratioP2
77495;SDS011;66600;48.378;9.948;2023-04-24T00:01:14;2.63;;;1.80;;
77495;SDS011;66600;48.378;9.948;2023-04-24T00:03:40;2.25;;;1.60;;
77495;SDS011;66600;48.378;9.948;2023-04-24T00:06:06;2.78;;;1.50;;
77495;SDS011;66600;48.378;9.948;2023-04-24T00:08:33;3.25;;;2.03;;
77495;SDS011;66600;48.378;9.948;2023-04-24T00:10:58;3.97;;;2.00;;
77495;SDS011;66600;48.378;9.948;2023-04-24T00:13:24;3.97;;;1.95;;
77495;SDS011;66600;48.378;9.948;2023-04-24T00:15:49;4.72;;;2.42;;
77495;SDS011;66600;48.378;9.948;2023-04-24T00:18:14;4.25;;;2.00;;
77495;SDS011;66600;48.378;9.948;2023-04-24T00:20:40;3.83;;;1.90;;
77495;SDS011;66600;48.378;9.948;2023-04-24T00:23:05;2.90;;;1.80;;
77495;SDS011;66600;48.378;9.948;2023-04-24T00:25:31;3.85;;;2.00;;
77495;SDS011;66600;48.378;9.948;2023-04-24T00:27:56;3.60;;;1.83;;
77495;SDS011;66600;48.378;9.948;2023-04-24T00:30:21;3.28;;;2.08;;
77495;SDS011;66600;48.378;9.948;2023-04-24T00:32:46;3.05;;;1.98;;
77495;SDS011;66600;48.378;9.948;2023-04-24T00:35:12;3.47;;;2.05;;
77495;SDS011;66600;48.378;9.948;2023-04-24T00:37:37;4.13;;;2.00;;
77495;SDS011;66600;48.378;9.948;2023-04-24T00:40:02;5.63;;;2.10;;
77495;SDS011;66600;48.378;9.948;2023-04-24T00:42:28;3.30;;;2.15;;
77495;SDS011;66600;48.378;9.948;2023-04-24T00:44:54;3.47;;;1.70;;
77495;SDS011;66600;48.378;9.948;2023-04-24T00:47:19;4.70;;;2.30;;
77495;SDS011;66600;48.378;9.948;2023-04-24T00:49:46;3.85;;;2.22;;
77495;SDS011;66600;48.378;9.948;2023-04-24T00:52:12;5.00;;;2.20;;
77495;SDS011;66600;48.378;9.948;2023-04-24T00:54:37;3.05;;;2.03;;
77495;SDS011;66600;48.378;9.948;2023-04-24T00:57:03;2.75;;;1.83;;
77495;SDS011;66600;48.378;9.948;2023-04-24T00:59:28;2.80;;;1.83;;
77495;SDS011;66600;48.378;9.948;2023-04-24T01:01:54;2.83;;;1.88;;
77495;SDS011;66600;48.378;9.948;2023-04-24T01:04:20;4.10;;;1.80;;
77495;SDS011;66600;48.378;9.948;2023-04-24T01:06:46;3.55;;;2.00;;
77495;SDS011;66600;48.378;9.948;2023-04-24T01:09:11;4.03;;;1.98;;
77495;SDS011;66600;48.378;9.948;2023-04-24T01:11:37;2.40;;;1.70;;
77495;SDS011;66600;48.378;9.948;2023-04-24T01:14:03;3.45;;;1.83;;
77495;SDS011;66600;48.378;9.948;2023-04-24T01:16:28;2.72;;;1.80;;
77495;SDS011;66600;48.378;9.948;2023-04-24T01:18:54;3.10;;;1.80;;
77495;SDS011;66600;48.378;9.948;2023-04-24T01:21:19;4.55;;;1.95;;
77495;SDS011;66600;48.378;9.948;2023-04-24T01:23:46;2.85;;;1.85;;
77495;SDS011;66600;48.378;9.948;2023-04-24T01:26:12;2.72;;;1.90;;
77495;SDS011;66600;48.378;9.948;2023-04-24T01:28:38;3.75;;;1.92;;
77495;SDS011;66600;48.378;9.948;2023-04-24T01:31:04;3.38;;;1.80;;
77495;SDS011;66600;48.378;9.948;2023-04-24T01:33:29;2.85;;;2.17;;
77495;SDS011;66600;48.378;9.948;2023-04-24T01:35:55;3.60;;;2.03;;
77495;SDS011;66600;48.378;9.948;2023-04-24T01:38:21;2.95;;;2.10;;
77495;SDS011;66600;48.378;9.948;2023-04-24T01:40:47;3.38;;;2.20;;
77495;SDS011;66600;48.378;9.948;2023-04-24T01:43:12;3.50;;;2.30;;
77495;SDS011;66600;48.378;9.948;2023-04-24T01:45:38;2.90;;;2.03;;
77495;SDS011;66600;48.378;9.948;2023-04-24T01:48:03;4.03;;;1.80;;
77495;SDS011;66600;48.378;9.948;2023-04-24T01:50:29;3.28;;;2.08;;
77495;SDS011;66600;48.378;9.948;2023-04-24T01:52:55;2.78;;;1.88;;
77495;SDS011;66600;48.378;9.948;2023-04-24T01:55:20;4.25;;;2.10;;
77495;SDS011;66600;48.378;9.948;2023-04-24T01:57:46;3.13;;;2.13;;
77495;SDS011;66600;48.378;9.948;2023-04-24T02:00:12;2.90;;;1.73;;
77495;SDS011;66600;48.378;9.948;2023-04-24T02:02:39;2.80;;;2.08;;
77495;SDS011;66600;48.378;9.948;2023-04-24T02:05:06;2.58;;;1.75;;
77495;SDS011;66600;48.378;9.948;2023-04-24T02:07:32;3.40;;;2.30;;
77495;SDS011;66600;48.378;9.948;2023-04-24T02:09:57;3.78;;;2.10;;
77495;SDS011;66600;48.378;9.948;2023-04-24T02:12:23;3.28;;;2.13;;
77495;SDS011;66600;48.378;9.948;2023-04-24T02:14:48;4.25;;;2.20;;
77495;SDS011;66600;48.378;9.948;2023-04-24T02:17:14;3.22;;;2.00;;
77495;SDS011;66600;48.378;9.948;2023-04-24T02:19:40;3.63;;;2.17;;
77495;SDS011;66600;48.378;9.948;2023-04-24T02:22:05;2.63;;;2.00;;
77495;SDS011;66600;48.378;9.948;2023-04-24T02:24:31;4.43;;;2.00;;
77495;SDS011;66600;48.378;9.948;2023-04-24T02:26:56;2.88;;;1.83;;
77495;SDS011;66600;48.378;9.948;2023-04-24T02:29:22;3.03;;;1.95;;
77495;SDS011;66600;48.378;9.948;2023-04-24T02:31:48;3.45;;;1.80;;
77495;SDS011;66600;48.378;9.948;2023-04-24T02:34:13;3.17;;;2.17;;
77495;SDS011;66600;48.378;9.948;2023-04-24T02:36:38;2.80;;;1.92;;
77495;SDS011;66600;48.378;9.948;2023-04-24T02:39:04;2.88;;;1.70;;
77495;SDS011;66600;48.378;9.948;2023-04-24T02:41:29;3.30;;;1.70;;
77495;SDS011;66600;48.378;9.948;2023-04-24T02:43:57;4.32;;;2.03;;
77495;SDS011;66600;48.378;9.948;2023-04-24T02:46:25;2.42;;;1.85;;
77495;SDS011;66600;48.378;9.948;2023-04-24T02:48:50;3.35;;;2.10;;
77495;SDS011;66600;48.378;9.948;2023-04-24T02:51:16;2.33;;;1.80;;
77495;SDS011;66600;48.378;9.948;2023-04-24T02:53:41;3.95;;;1.70;;
77495;SDS011;66600;48.378;9.948;2023-04-24T02:56:06;3.28;;;1.55;;
77495;SDS011;66600;48.378;9.948;2023-04-24T02:58:32;3.60;;;1.80;;
77495;SDS011;66600;48.378;9.948;2023-04-24T03:00:57;3.15;;;1.98;;
77495;SDS011;66600;48.378;9.948;2023-04-24T03:03:23;4.07;;;1.85;;
77495;SDS011;66600;48.378;9.948;2023-04-24T03:05:48;4.03;;;2.00;;
77495;SDS011;66600;48.378;9.948;2023-04-24T03:08:14;2.47;;;1.70;;
77495;SDS011;66600;48.378;9.948;2023-04-24T03:10:39;2.95;;;2.03;;
77495;SDS011;66600;48.378;9.948;2023-04-24T03:13:04;5.60;;;1.73;;
77495;SDS011;66600;48.378;9.948;2023-04-24T03:15:30;2.53;;;1.70;;
77495;SDS011;66600;48.378;9.948;2023-04-24T03:17:55;4.28;;;2.10;;
77495;SDS011;66600;48.378;9.948;2023-04-24T03:20:20;3.10;;;1.90;;
77495;SDS011;66600;48.378;9.948;2023-04-24T03:22:46;3.85;;;2.05;;
77495;SDS011;66600;48.378;9.948;2023-04-24T03:25:11;3.75;;;2.03;;
77495;SDS011;66600;48.378;9.948;2023-04-24T03:27:37;3.50;;;2.10;;
77495;SDS011;66600;48.378;9.948;2023-04-24T03:30:02;2.75;;;1.95;;
77495;SDS011;66600;48.378;9.948;2023-04-24T03:32:28;2.72;;;2.03;;
77495;SDS011;66600;48.378;9.948;2023-04-24T03:34:53;3.22;;;2.33;;
77495;SDS011;66600;48.378;9.948;2023-04-24T03:37:18;3.65;;;2.55;;
77495;SDS011;66600;48.378;9.948;2023-04-24T03:39:44;3.35;;;2.17;;
77495;SDS011;66600;48.378;9.948;2023-04-24T03:42:09;3.55;;;2.35;;
77495;SDS011;66600;48.378;9.948;2023-04-24T03:44:35;4.22;;;2.55;;
77495;SDS011;66600;48.378;9.948;2023-04-24T03:47:01;5.10;;;2.58;;
77495;SDS011;66600;48.378;9.948;2023-04-24T03:49:26;6.28;;;2.63;;
77495;SDS011;66600;48.378;9.948;2023-04-24T03:51:51;3.97;;;2.60;;
77495;SDS011;66600;48.378;9.948;2023-04-24T03:54:17;5.43;;;2.42;;
77495;SDS011;66600;48.378;9.948;2023-04-24T03:56:45;5.03;;;2.80;;
77495;SDS011;66600;48.378;9.948;2023-04-24T03:59:11;5.07;;;2.80;;
77495;SDS011;66600;48.378;9.948;2023-04-24T04:01:36;3.58;;;2.65;;
77495;SDS011;66600;48.378;9.948;2023-04-24T04:04:05;3.97;;;2.65;;
77495;SDS011;66600;48.378;9.948;2023-04-24T04:06:31;4.20;;;2.90;;
77495;SDS011;66600;48.378;9.948;2023-04-24T04:08:57;4.18;;;3.00;;
77495;SDS011;66600;48.378;9.948;2023-04-24T04:11:23;4.18;;;3.17;;
77495;SDS011;66600;48.378;9.948;2023-04-24T04:13:48;5.57;;;3.10;;
77495;SDS011;66600;48.378;9.948;2023-04-24T04:16:14;4.63;;;3.38;;
77495;SDS011;66600;48.378;9.948;2023-04-24T04:18:41;4.90;;;3.05;;
77495;SDS011;66600;48.378;9.948;2023-04-24T04:21:07;5.43;;;3.83;;
77495;SDS011;66600;48.378;9.948;2023-04-24T04:23:32;7.45;;;3.60;;
77495;SDS011;66600;48.378;9.948;2023-04-24T04:25:57;6.65;;;3.60;;
77495;SDS011;66600;48.378;9.948;2023-04-24T04:28:23;5.32;;;3.35;;
77495;SDS011;66600;48.378;9.948;2023-04-24T04:30:49;4.95;;;3.67;;
77495;SDS011;66600;48.378;9.948;2023-04-24T04:33:18;6.90;;;3.90;;
77495;SDS011;66600;48.378;9.948;2023-04-24T04:35:44;6.10;;;3.83;;
77495;SDS011;66600;48.378;9.948;2023-04-24T04:38:09;6.70;;;3.72;;
77495;SDS011;66600;48.378;9.948;2023-04-24T04:40:35;5.38;;;3.60;;
77495;SDS011;66600;48.378;9.948;2023-04-24T04:43:01;5.43;;;3.63;;
77495;SDS011;66600;48.378;9.948;2023-04-24T04:45:27;5.75;;;3.75;;
77495;SDS011;66600;48.378;9.948;2023-04-24T04:47:53;6.88;;;3.42;;
77495;SDS011;66600;48.378;9.948;2023-04-24T04:50:20;5.00;;;3.00;;
77495;SDS011;66600;48.378;9.948;2023-04-24T04:52:45;4.32;;;3.15;;
77495;SDS011;66600;48.378;9.948;2023-04-24T04:55:11;5.20;;;3.35;;
77495;SDS011;66600;48.378;9.948;2023-04-24T04:57:38;5.10;;;3.42;;
77495;SDS011;66600;48.378;9.948;2023-04-24T05:00:04;3.75;;;2.53;;
77495;SDS011;66600;48.378;9.948;2023-04-24T05:02:31;4.22;;;2.80;;
77495;SDS011;66600;48.378;9.948;2023-04-24T05:04:57;6.32;;;2.97;;
77495;SDS011;66600;48.378;9.948;2023-04-24T05:07:22;3.80;;;2.40;;
77495;SDS011;66600;48.378;9.948;2023-04-24T05:09:47;3.60;;;2.20;;
77495;SDS011;66600;48.378;9.948;2023-04-24T05:12:13;5.55;;;2.33;;
77495;SDS011;66600;48.378;9.948;2023-04-24T05:14:38;2.83;;;1.80;;
77495;SDS011;66600;48.378;9.948;2023-04-24T05:17:03;1.95;;;1.52;;
77495;SDS011;66600;48.378;9.948;2023-04-24T05:19:29;2.47;;;1.73;;
77495;SDS011;66600;48.378;9.948;2023-04-24T05:21:54;3.45;;;1.52;;
77495;SDS011;66600;48.378;9.948;2023-04-24T05:24:20;2.42;;;1.50;;
77495;SDS011;66600;48.378;9.948;2023-04-24T05:26:46;2.55;;;1.83;;
77495;SDS011;66600;48.378;9.948;2023-04-24T05:29:11;4.97;;;1.60;;
77495;SDS011;66600;48.378;9.948;2023-04-24T05:31:37;2.47;;;1.50;;
77495;SDS011;66600;48.378;9.948;2023-04-24T05:34:02;2.13;;;1.40;;
77495;SDS011;66600;48.378;9.948;2023-04-24T05:36:27;2.15;;;1.27;;
77495;SDS011;66600;48.378;9.948;2023-04-24T05:38:53;1.30;;;1.00;;
77495;SDS011;66600;48.378;9.948;2023-04-24T05:41:19;1.77;;;1.50;;
77495;SDS011;66600;48.378;9.948;2023-04-24T05:43:44;3.80;;;1.50;;
77495;SDS011;66600;48.378;9.948;2023-04-24T05:46:10;2.47;;;1.33;;
77495;SDS011;66600;48.378;9.948;2023-04-24T05:48:36;2.88;;;1.63;;
77495;SDS011;66600;48.378;9.948;2023-04-24T05:51:02;2.90;;;1.52;;
77495;SDS011;66600;48.378;9.948;2023-04-24T05:53:27;3.13;;;1.30;;
77495;SDS011;66600;48.378;9.948;2023-04-24T05:55:52;2.70;;;1.50;;
77495;SDS011;66600;48.378;9.948;2023-04-24T05:58:17;3.25;;;1.30;;
77495;SDS011;66600;48.378;9.948;2023-04-24T06:00:43;3.05;;;1.40;;
77495;SDS011;66600;48.378;9.948;2023-04-24T06:03:11;2.35;;;1.20;;
77495;SDS011;66600;48.378;9.948;2023-04-24T06:05:36;1.98;;;1.40;;
77495;SDS011;66600;48.378;9.948;2023-04-24T06:08:02;2.15;;;1.20;;
77495;SDS011;66600;48.378;9.948;2023-04-24T06:10:27;1.42;;;1.00;;
77495;SDS011;66600;48.378;9.948;2023-04-24T06:12:53;3.15;;;1.17;;
77495;SDS011;66600;48.378;9.948;2023-04-24T06:15:21;2.92;;;1.40;;
77495;SDS011;66600;48.378;9.948;2023-04-24T06:17:47;1.88;;;1.48;;
77495;SDS011;66600;48.378;9.948;2023-04-24T06:20:12;4.10;;;1.90;;
77495;SDS011;66600;48.378;9.948;2023-04-24T06:22:37;2.08;;;1.40;;
77495;SDS011;66600;48.378;9.948;2023-04-24T06:25:05;1.75;;;1.33;;
77495;SDS011;66600;48.378;9.948;2023-04-24T06:27:30;1.90;;;1.48;;
77495;SDS011;66600;48.378;9.948;2023-04-24T06:29:56;2.85;;;1.40;;
77495;SDS011;66600;48.378;9.948;2023-04-24T06:32:22;1.70;;;1.40;;
77495;SDS011;66600;48.378;9.948;2023-04-24T06:34:48;3.15;;;1.30;;
77495;SDS011;66600;48.378;9.948;2023-04-24T06:37:14;1.88;;;1.30;;
77495;SDS011;66600;48.378;9.948;2023-04-24T06:39:41;3.45;;;1.55;;
77495;SDS011;66600;48.378;9.948;2023-04-24T06:42:06;4.07;;;1.63;;
77495;SDS011;66600;48.378;9.948;2023-04-24T06:44:33;3.33;;;1.58;;
77495;SDS011;66600;48.378;9.948;2023-04-24T06:49:28;3.75;;;1.73;;
77495;SDS011;66600;48.378;9.948;2023-04-24T06:51:53;2.78;;;1.70;;
77495;SDS011;66600;48.378;9.948;2023-04-24T06:54:18;4.43;;;2.00;;
77495;SDS011;66600;48.378;9.948;2023-04-24T06:56:44;4.10;;;2.00;;
77495;SDS011;66600;48.378;9.948;2023-04-24T06:59:12;3.37;;;2.00;;
77495;SDS011;66600;48.378;9.948;2023-04-24T07:01:37;2.78;;;1.60;;
77495;SDS011;66600;48.378;9.948;2023-04-24T07:04:03;2.80;;;1.60;;
77495;SDS011;66600;48.378;9.948;2023-04-24T07:06:28;3.97;;;1.73;;
77495;SDS011;66600;48.378;9.948;2023-04-24T07:08:55;2.92;;;1.38;;
77495;SDS011;66600;48.378;9.948;2023-04-24T07:11:21;1.90;;;1.30;;
77495;SDS011;66600;48.378;9.948;2023-04-24T07:13:47;3.03;;;1.40;;
77495;SDS011;66600;48.378;9.948;2023-04-24T07:16:12;3.33;;;1.65;;
77495;SDS011;66600;48.378;9.948;2023-04-24T07:18:38;3.20;;;1.60;;
77495;SDS011;66600;48.378;9.948;2023-04-24T07:21:04;3.10;;;1.73;;
77495;SDS011;66600;48.378;9.948;2023-04-24T07:23:30;3.40;;;1.52;;
77495;SDS011;66600;48.378;9.948;2023-04-24T07:25:56;4.72;;;1.83;;
77495;SDS011;66600;48.378;9.948;2023-04-24T07:28:21;3.05;;;1.70;;
77495;SDS011;66600;48.378;9.948;2023-04-24T07:30:47;2.78;;;1.58;;
77495;SDS011;66600;48.378;9.948;2023-04-24T07:33:12;3.15;;;1.70;;
77495;SDS011;66600;48.378;9.948;2023-04-24T07:35:38;2.95;;;1.67;;
77495;SDS011;66600;48.378;9.948;2023-04-24T07:38:03;4.15;;;1.90;;
77495;SDS011;66600;48.378;9.948;2023-04-24T07:40:29;2.90;;;1.75;;
77495;SDS011;66600;48.378;9.948;2023-04-24T07:42:55;7.18;;;1.95;;
77495;SDS011;66600;48.378;9.948;2023-04-24T07:45:20;4.22;;;2.35;;
77495;SDS011;66600;48.378;9.948;2023-04-24T07:47:45;3.05;;;1.95;;
77495;SDS011;66600;48.378;9.948;2023-04-24T07:50:14;3.92;;;2.70;;
77495;SDS011;66600;48.378;9.948;2023-04-24T07:52:42;4.13;;;2.28;;
77495;SDS011;66600;48.378;9.948;2023-04-24T07:55:07;3.35;;;1.90;;
77495;SDS011;66600;48.378;9.948;2023-04-24T07:57:33;4.10;;;2.45;;
77495;SDS011;66600;48.378;9.948;2023-04-24T07:59:58;3.05;;;2.28;;
77495;SDS011;66600;48.378;9.948;2023-04-24T08:02:23;3.38;;;2.00;;
77495;SDS011;66600;48.378;9.948;2023-04-24T08:04:54;2.50;;;1.80;;
77495;SDS011;66600;48.378;9.948;2023-04-24T08:07:20;2.42;;;1.67;;
77495;SDS011;66600;48.378;9.948;2023-04-24T08:09:46;2.67;;;1.88;;
77495;SDS011;66600;48.378;9.948;2023-04-24T08:12:11;3.25;;;2.55;;
77495;SDS011;66600;48.378;9.948;2023-04-24T08:14:37;2.47;;;1.60;;
77495;SDS011;66600;48.378;9.948;2023-04-24T08:17:02;2.05;;;1.58;;
77495;SDS011;66600;48.378;9.948;2023-04-24T08:19:28;3.58;;;1.55;;
77495;SDS011;66600;48.378;9.948;2023-04-24T08:21:53;4.60;;;1.85;;
77495;SDS011;66600;48.378;9.948;2023-04-24T08:24:19;4.00;;;1.80;;
77495;SDS011;66600;48.378;9.948;2023-04-24T08:26:44;3.15;;;1.80;;
77495;SDS011;66600;48.378;9.948;2023-04-24T08:29:10;3.30;;;1.70;;
77495;SDS011;66600;48.378;9.948;2023-04-24T08:31:35;3.03;;;1.80;;
77495;SDS011;66600;48.378;9.948;2023-04-24T08:34:00;3.80;;;1.75;;
77495;SDS011;66600;48.378;9.948;2023-04-24T08:36:26;3.47;;;1.90;;
77495;SDS011;66600;48.378;9.948;2023-04-24T08:38:51;3.35;;;1.10;;
77495;SDS011;66600;48.378;9.948;2023-04-24T08:41:17;3.47;;;1.50;;
77495;SDS011;66600;48.378;9.948;2023-04-24T08:43:45;3.65;;;1.80;;
77495;SDS011;66600;48.378;9.948;2023-04-24T08:46:11;4.05;;;1.60;;
77495;SDS011;66600;48.378;9.948;2023-04-24T08:48:38;2.45;;;1.70;;
77495;SDS011;66600;48.378;9.948;2023-04-24T08:51:05;1.90;;;1.23;;
77495;SDS011;66600;48.378;9.948;2023-04-24T08:53:32;3.63;;;1.52;;
77495;SDS011;66600;48.378;9.948;2023-04-24T08:55:58;4.25;;;1.60;;
77495;SDS011;66600;48.378;9.948;2023-04-24T08:58:26;1.65;;;1.30;;
77495;SDS011;66600;48.378;9.948;2023-04-24T09:00:54;3.42;;;1.70;;
77495;SDS011;66600;48.378;9.948;2023-04-24T09:03:20;3.78;;;1.60;;
77495;SDS011;66600;48.378;9.948;2023-04-24T09:05:46;3.53;;;1.80;;
77495;SDS011;66600;48.378;9.948;2023-04-24T09:08:13;2.58;;;1.58;;
77495;SDS011;66600;48.378;9.948;2023-04-24T09:10:39;3.03;;;1.95;;
77495;SDS011;66600;48.378;9.948;2023-04-24T09:13:05;4.22;;;1.95;;
77495;SDS011;66600;48.378;9.948;2023-04-24T09:15:34;3.30;;;1.95;;
77495;SDS011;66600;48.378;9.948;2023-04-24T09:18:02;6.38;;;1.98;;
77495;SDS011;66600;48.378;9.948;2023-04-24T09:20:29;2.42;;;1.73;;
77495;SDS011;66600;48.378;9.948;2023-04-24T09:22:54;2.08;;;1.42;;
77495;SDS011;66600;48.378;9.948;2023-04-24T09:25:22;2.65;;;1.70;;
77495;SDS011;66600;48.378;9.948;2023-04-24T09:27:47;3.15;;;1.58;;
77495;SDS011;66600;48.378;9.948;2023-04-24T09:30:13;2.50;;;1.73;;
77495;SDS011;66600;48.378;9.948;2023-04-24T09:32:39;3.83;;;1.70;;
77495;SDS011;66600;48.378;9.948;2023-04-24T09:35:12;2.40;;;1.70;;
77495;SDS011;66600;48.378;9.948;2023-04-24T09:37:42;3.20;;;1.50;;
77495;SDS011;66600;48.378;9.948;2023-04-24T09:40:10;3.42;;;1.50;;
77495;SDS011;66600;48.378;9.948;2023-04-24T09:42:37;2.28;;;1.50;;
77495;SDS011;66600;48.378;9.948;2023-04-24T09:45:03;2.35;;;1.40;;
77495;SDS011;66600;48.378;9.948;2023-04-24T09:47:35;1.63;;;1.20;;
77495;SDS011;66600;48.378;9.948;2023-04-24T09:50:14;2.55;;;1.58;;
77495;SDS011;66600;48.378;9.948;2023-04-24T09:52:41;1.30;;;1.20;;
77495;SDS011;66600;48.378;9.948;2023-04-24T09:55:16;2.80;;;1.40;;
77495;SDS011;66600;48.378;9.948;2023-04-24T09:57:51;2.00;;;1.23;;
77495;SDS011;66600;48.378;9.948;2023-04-24T10:00:18;1.75;;;1.30;;
77495;SDS011;66600;48.378;9.948;2023-04-24T10:03:00;1.40;;;1.20;;
77495;SDS011;66600;48.378;9.948;2023-04-24T10:05:31;2.50;;;1.40;;
77495;SDS011;66600;48.378;9.948;2023-04-24T10:08:00;2.75;;;1.60;;
77495;SDS011;66600;48.378;9.948;2023-04-24T10:10:29;1.80;;;1.30;;
77495;SDS011;66600;48.378;9.948;2023-04-24T10:12:56;2.10;;;1.30;;
77495;SDS011;66600;48.378;9.948;2023-04-24T10:15:21;2.80;;;1.55;;
77495;SDS011;66600;48.378;9.948;2023-04-24T10:17:48;2.70;;;1.40;;
77495;SDS011;66600;48.378;9.948;2023-04-24T10:20:18;1.60;;;1.10;;
77495;SDS011;66600;48.378;9.948;2023-04-24T10:22:45;2.92;;;1.27;;
77495;SDS011;66600;48.378;9.948;2023-04-24T10:25:14;2.30;;;1.33;;
77495;SDS011;66600;48.378;9.948;2023-04-24T10:27:41;2.90;;;1.70;;
77495;SDS011;66600;48.378;9.948;2023-04-24T10:30:07;2.03;;;1.52;;
77495;SDS011;66600;48.378;9.948;2023-04-24T10:32:34;2.65;;;1.35;;
77495;SDS011;66600;48.378;9.948;2023-04-24T10:34:59;2.10;;;1.60;;
77495;SDS011;66600;48.378;9.948;2023-04-24T10:37:25;2.10;;;1.50;;
77495;SDS011;66600;48.378;9.948;2023-04-24T10:39:52;1.85;;;1.23;;
77495;SDS011;66600;48.378;9.948;2023-04-24T10:42:19;1.50;;;1.20;;
77495;SDS011;66600;48.378;9.948;2023-04-24T10:44:46;1.92;;;1.45;;
77495;SDS011;66600;48.378;9.948;2023-04-24T10:47:13;2.45;;;1.52;;
77495;SDS011;66600;48.378;9.948;2023-04-24T10:49:39;4.43;;;1.70;;
77495;SDS011;66600;48.378;9.948;2023-04-24T10:52:05;1.65;;;1.08;;
77495;SDS011;66600;48.378;9.948;2023-04-24T10:54:34;2.03;;;1.25;;
77495;SDS011;66600;48.378;9.948;2023-04-24T11:00:29;4.05;;;1.40;;
77495;SDS011;66600;48.378;9.948;2023-04-24T11:02:40;3.33;;;1.55;;
77495;SDS011;66600;48.378;9.948;2023-04-24T11:05:14;4.28;;;1.77;;
77495;SDS011;66600;48.378;9.948;2023-04-24T11:10:46;2.13;;;1.60;;
77495;SDS011;66600;48.378;9.948;2023-04-24T11:13:15;1.77;;;1.40;;
77495;SDS011;66600;48.378;9.948;2023-04-24T11:15:42;2.47;;;1.50;;
77495;SDS011;66600;48.378;9.948;2023-04-24T11:18:12;2.47;;;1.52;;
77495;SDS011;66600;48.378;9.948;2023-04-24T11:20:41;3.50;;;1.52;;
77495;SDS011;66600;48.378;9.948;2023-04-24T11:23:07;3.53;;;1.60;;
77495;SDS011;66600;48.378;9.948;2023-04-24T11:25:33;3.42;;;1.40;;
77495;SDS011;66600;48.378;9.948;2023-04-24T11:28:04;2.03;;;1.23;;
77495;SDS011;66600;48.378;9.948;2023-04-24T11:30:30;2.45;;;1.65;;
77495;SDS011;66600;48.378;9.948;2023-04-24T11:33:02;4.57;;;1.98;;
77495;SDS011;66600;48.378;9.948;2023-04-24T11:35:29;1.80;;;1.23;;
77495;SDS011;66600;48.378;9.948;2023-04-24T11:37:55;3.75;;;1.40;;
77495;SDS011;66600;48.378;9.948;2023-04-24T11:40:21;4.03;;;1.33;;
77495;SDS011;66600;48.378;9.948;2023-04-24T11:42:48;2.92;;;1.50;;
77495;SDS011;66600;48.378;9.948;2023-04-24T11:47:50;3.00;;;1.70;;
77495;SDS011;66600;48.378;9.948;2023-04-24T11:50:21;2.95;;;1.48;;
77495;SDS011;66600;48.378;9.948;2023-04-24T11:52:48;3.80;;;1.80;;
77495;SDS011;66600;48.378;9.948;2023-04-24T11:57:41;1.80;;;1.20;;
77495;SDS011;66600;48.378;9.948;2023-04-24T12:00:14;2.42;;;1.20;;
77495;SDS011;66600;48.378;9.948;2023-04-24T12:02:41;3.67;;;1.42;;
77495;SDS011;66600;48.378;9.948;2023-04-24T12:05:06;1.95;;;1.33;;
77495;SDS011;66600;48.378;9.948;2023-04-24T12:07:36;1.85;;;1.50;;
77495;SDS011;66600;48.378;9.948;2023-04-24T12:10:07;2.45;;;1.40;;
77495;SDS011;66600;48.378;9.948;2023-04-24T12:12:34;2.42;;;1.63;;
77495;SDS011;66600;48.378;9.948;2023-04-24T12:14:59;2.80;;;1.38;;
77495;SDS011;66600;48.378;9.948;2023-04-24T12:17:26;2.20;;;1.50;;
77495;SDS011;66600;48.378;9.948;2023-04-24T12:19:57;2.50;;;1.40;;
77495;SDS011;66600;48.378;9.948;2023-04-24T12:22:24;3.35;;;1.63;;
77495;SDS011;66600;48.378;9.948;2023-04-24T12:25:23;2.38;;;1.30;;
77495;SDS011;66600;48.378;9.948;2023-04-24T12:27:43;1.23;;;1.02;;
77495;SDS011;66600;48.378;9.948;2023-04-24T12:30:12;2.60;;;1.20;;
77495;SDS011;66600;48.378;9.948;2023-04-24T12:32:46;1.92;;;1.30;;
77495;SDS011;66600;48.378;9.948;2023-04-24T12:35:14;2.20;;;1.20;;
77495;SDS011;66600;48.378;9.948;2023-04-24T12:37:46;2.10;;;1.17;;
77495;SDS011;66600;48.378;9.948;2023-04-24T12:40:11;2.78;;;1.13;;
77495;SDS011;66600;48.378;9.948;2023-04-24T12:42:50;1.85;;;1.10;;
77495;SDS011;66600;48.378;9.948;2023-04-24T12:45:17;1.52;;;1.20;;
77495;SDS011;66600;48.378;9.948;2023-04-24T12:47:43;4.45;;;1.42;;
77495;SDS011;66600;48.378;9.948;2023-04-24T12:50:13;2.63;;;1.13;;
77495;SDS011;66600;48.378;9.948;2023-04-24T12:52:39;2.15;;;1.10;;
77495;SDS011;66600;48.378;9.948;2023-04-24T12:55:06;2.00;;;1.08;;
77495;SDS011;66600;48.378;9.948;2023-04-24T12:57:35;1.35;;;1.00;;
77495;SDS011;66600;48.378;9.948;2023-04-24T13:00:02;1.75;;;1.00;;
77495;SDS011;66600;48.378;9.948;2023-04-24T13:02:29;4.57;;;1.88;;
77495;SDS011;66600;48.378;9.948;2023-04-24T13:04:56;2.15;;;0.93;;
77495;SDS011;66600;48.378;9.948;2023-04-24T13:07:22;1.45;;;0.90;;
77495;SDS011;66600;48.378;9.948;2023-04-24T13:09:47;1.23;;;0.90;;
77495;SDS011;66600;48.378;9.948;2023-04-24T13:12:14;1.55;;;1.00;;
77495;SDS011;66600;48.378;9.948;2023-04-24T13:14:40;1.27;;;1.05;;
77495;SDS011;66600;48.378;9.948;2023-04-24T13:17:05;1.52;;;1.00;;
77495;SDS011;66600;48.378;9.948;2023-04-24T13:19:35;1.58;;;1.00;;
77495;SDS011;66600;48.378;9.948;2023-04-24T13:22:02;2.45;;;1.00;;
77495;SDS011;66600;48.378;9.948;2023-04-24T13:24:28;1.15;;;0.82;;
77495;SDS011;66600;48.378;9.948;2023-04-24T13:26:53;1.92;;;1.10;;
77495;SDS011;66600;48.378;9.948;2023-04-24T13:29:19;1.30;;;1.10;;
77495;SDS011;66600;48.378;9.948;2023-04-24T13:31:45;1.55;;;0.80;;
77495;SDS011;66600;48.378;9.948;2023-04-24T13:34:11;1.65;;;0.85;;
77495;SDS011;66600;48.378;9.948;2023-04-24T13:36:37;3.25;;;1.13;;
77495;SDS011;66600;48.378;9.948;2023-04-24T13:39:03;1.77;;;1.05;;
77495;SDS011;66600;48.378;9.948;2023-04-24T13:41:30;2.65;;;1.10;;
77495;SDS011;66600;48.378;9.948;2023-04-24T13:43:55;0.93;;;0.90;;
77495;SDS011;66600;48.378;9.948;2023-04-24T13:46:21;1.85;;;1.02;;
77495;SDS011;66600;48.378;9.948;2023-04-24T13:48:46;1.10;;;1.00;;
77495;SDS011;66600;48.378;9.948;2023-04-24T13:51:12;1.70;;;1.20;;
77495;SDS011;66600;48.378;9.948;2023-04-24T13:53:37;1.30;;;1.00;;
77495;SDS011;66600;48.378;9.948;2023-04-24T13:56:03;2.97;;;1.30;;
77495;SDS011;66600;48.378;9.948;2023-04-24T13:58:30;1.70;;;1.00;;
77495;SDS011;66600;48.378;9.948;2023-04-24T14:00:56;1.63;;;0.90;;
77495;SDS011;66600;48.378;9.948;2023-04-24T14:03:21;1.95;;;0.82;;
77495;SDS011;66600;48.378;9.948;2023-04-24T14:05:46;2.70;;;1.15;;
77495;SDS011;66600;48.378;9.948;2023-04-24T14:08:11;3.08;;;1.15;;
77495;SDS011;66600;48.378;9.948;2023-04-24T14:10:37;1.10;;;1.00;;
77495;SDS011;66600;48.378;9.948;2023-04-24T14:13:02;1.33;;;1.00;;
77495;SDS011;66600;48.378;9.948;2023-04-24T14:15:28;2.50;;;1.30;;
77495;SDS011;66600;48.378;9.948;2023-04-24T14:17:53;1.73;;;1.00;;
77495;SDS011;66600;48.378;9.948;2023-04-24T14:20:18;1.27;;;0.90;;
77495;SDS011;66600;48.378;9.948;2023-04-24T14:22:44;1.10;;;1.00;;
77495;SDS011;66600;48.378;9.948;2023-04-24T14:25:09;2.60;;;1.30;;
77495;SDS011;66600;48.378;9.948;2023-04-24T14:27:35;2.25;;;1.40;;
77495;SDS011;66600;48.378;9.948;2023-04-24T14:30:01;1.95;;;1.30;;
77495;SDS011;66600;48.378;9.948;2023-04-24T14:32:26;2.40;;;1.10;;
77495;SDS011;66600;48.378;9.948;2023-04-24T14:34:51;1.88;;;1.00;;
77495;SDS011;66600;48.378;9.948;2023-04-24T14:37:17;2.03;;;1.10;;
77495;SDS011;66600;48.378;9.948;2023-04-24T14:39:42;1.63;;;1.20;;
77495;SDS011;66600;48.378;9.948;2023-04-24T14:42:08;1.35;;;1.10;;
77495;SDS011;66600;48.378;9.948;2023-04-24T14:44:33;2.20;;;1.10;;
77495;SDS011;66600;48.378;9.948;2023-04-24T14:46:59;1.88;;;1.08;;
77495;SDS011;66600;48.378;9.948;2023-04-24T14:49:24;2.03;;;1.20;;
77495;SDS011;66600;48.378;9.948;2023-04-24T14:51:50;1.40;;;1.20;;
77495;SDS011;66600;48.378;9.948;2023-04-24T14:54:16;1.33;;;1.10;;
77495;SDS011;66600;48.378;9.948;2023-04-24T14:56:41;1.00;;;0.90;;